createdAt,value
2023-10-17T00:01:37.337Z,5.37
2023-10-17T00:04:19.237Z,5.27
2023-10-17T00:07:00.124Z,5.40
2023-10-17T00:09:27.182Z,5.53
2023-10-17T00:11:56.526Z,5.77
2023-10-17T00:14:29.134Z,5.17
2023-10-17T00:16:58.872Z,5.60
2023-10-17T00:19:32.794Z,5.00
2023-10-17T00:22:05.516Z,5.80
2023-10-17T00:24:32.374Z,5.37
2023-10-17T00:26:59.453Z,5.07
2023-10-17T00:29:27.834Z,5.33
2023-10-17T00:31:55.357Z,5.70
2023-10-17T00:34:26.791Z,5.33
2023-10-17T00:37:07.941Z,5.23
2023-10-17T00:39:34.690Z,5.70
2023-10-17T00:42:08.835Z,5.60
2023-10-17T00:44:40.054Z,5.50
2023-10-17T00:47:20.273Z,5.43
2023-10-17T00:49:47.360Z,5.77
2023-10-17T00:52:30.565Z,5.80
2023-10-17T00:54:58.555Z,5.80
2023-10-17T00:57:28.715Z,5.33
2023-10-17T01:00:10.381Z,5.37
2023-10-17T01:02:46.477Z,5.23
2023-10-17T01:05:13.599Z,5.63
2023-10-17T01:07:43.194Z,5.33
2023-10-17T01:10:19.272Z,5.33
2023-10-17T01:13:04.048Z,4.97
2023-10-17T01:15:34.279Z,4.90
2023-10-17T01:18:07.078Z,5.23
2023-10-17T01:20:35.433Z,5.67
2023-10-17T01:23:02.529Z,5.67
2023-10-17T01:25:39.913Z,5.17
2023-10-17T01:28:08.163Z,6.50
2023-10-17T01:30:34.966Z,5.97
2023-10-17T01:33:01.985Z,5.83
2023-10-17T01:35:28.899Z,6.43
2023-10-17T01:37:57.270Z,5.70
2023-10-17T01:40:24.948Z,6.10
2023-10-17T01:42:52.572Z,5.80
2023-10-17T01:45:24.917Z,6.10
2023-10-17T01:47:55.560Z,6.50
2023-10-17T01:50:25.642Z,5.90
2023-10-17T01:52:55.732Z,5.70
2023-10-17T01:55:27.662Z,5.10
2023-10-17T01:58:01.458Z,5.93
2023-10-17T02:00:39.481Z,5.37
2023-10-17T02:03:14.146Z,5.03
2023-10-17T02:05:41.197Z,5.13
2023-10-17T02:08:08.190Z,5.27
2023-10-17T02:10:35.211Z,5.23
2023-10-17T02:13:05.445Z,4.83
2023-10-17T02:15:32.278Z,4.97
2023-10-17T02:17:59.445Z,4.87
2023-10-17T02:20:29.188Z,4.47
2023-10-17T02:23:01.037Z,4.80
2023-10-17T02:25:36.722Z,4.50
2023-10-17T02:28:03.903Z,4.47
2023-10-17T02:30:31.033Z,4.77
2023-10-17T02:32:58.137Z,4.47
2023-10-17T02:35:41.353Z,4.47
2023-10-17T02:38:09.864Z,4.77
2023-10-17T02:40:41.809Z,4.47
2023-10-17T02:43:14.358Z,5.00
2023-10-17T02:45:43.398Z,5.03
2023-10-17T02:48:27.661Z,5.20
2023-10-17T02:51:00.501Z,5.30
2023-10-17T02:53:31.504Z,5.13
2023-10-17T02:55:58.929Z,5.23
2023-10-17T02:58:25.678Z,5.20
2023-10-17T03:00:52.612Z,6.00
2023-10-17T03:03:21.375Z,6.40
2023-10-17T03:05:54.917Z,6.07
2023-10-17T03:08:22.523Z,6.50
2023-10-17T03:10:56.994Z,8.43
2023-10-17T03:13:25.142Z,11.43
2023-10-17T03:15:56.838Z,14.17
2023-10-17T03:18:24.173Z,14.43
2023-10-17T03:20:55.453Z,14.60
2023-10-17T03:23:29.691Z,15.33
2023-10-17T03:26:06.274Z,15.57
2023-10-17T03:28:35.886Z,15.23
2023-10-17T03:31:12.106Z,14.70
2023-10-17T03:33:43.969Z,13.67
2023-10-17T03:36:31.318Z,13.50
2023-10-17T03:39:15.934Z,12.90
2023-10-17T03:41:43.065Z,13.17
2023-10-17T03:44:09.908Z,12.43
2023-10-17T03:46:37.083Z,12.80
2023-10-17T03:49:05.570Z,12.37
2023-10-17T03:51:32.777Z,12.30
2023-10-17T03:54:08.719Z,11.23
2023-10-17T03:56:47.340Z,12.00
2023-10-17T03:59:14.718Z,12.97
2023-10-17T04:01:42.903Z,13.60
2023-10-17T04:04:21.122Z,13.23
2023-10-17T04:06:58.019Z,14.20
2023-10-17T04:09:29.201Z,14.87
2023-10-17T04:12:05.025Z,17.07
2023-10-17T04:14:51.796Z,16.77
2023-10-17T04:17:24.862Z,17.97
2023-10-17T04:20:00.559Z,17.07
2023-10-17T04:22:30.863Z,17.60
2023-10-17T04:25:02.466Z,19.13
2023-10-17T04:27:36.236Z,19.63
2023-10-17T04:30:09.233Z,20.20
2023-10-17T04:32:40.021Z,20.50
2023-10-17T04:35:08.516Z,19.03
2023-10-17T04:37:46.344Z,18.90
2023-10-17T04:40:38.738Z,18.83
2023-10-17T04:43:40.699Z,18.10
2023-10-17T04:46:10.009Z,17.13
2023-10-17T04:48:37.705Z,18.80
2023-10-17T04:51:21.413Z,18.83
2023-10-17T04:53:51.688Z,18.03
2023-10-17T04:56:23.279Z,18.63
2023-10-17T04:58:50.775Z,19.07
2023-10-17T05:01:44.069Z,19.23
2023-10-17T05:04:34.058Z,18.90
2023-10-17T05:07:00.990Z,18.37
2023-10-17T05:09:36.821Z,18.07
2023-10-17T05:12:29.879Z,18.57
2023-10-17T05:15:15.254Z,16.57
2023-10-17T05:18:00.824Z,15.13
2023-10-17T05:20:46.168Z,13.97
2023-10-17T05:23:37.207Z,12.80
2023-10-17T05:26:26.722Z,12.93
2023-10-17T05:29:13.151Z,12.57
2023-10-17T05:32:00.910Z,14.13
2023-10-17T05:34:49.286Z,15.00
2023-10-17T05:37:34.833Z,17.33
2023-10-17T05:40:20.086Z,16.50
2023-10-17T05:43:08.995Z,17.13
2023-10-17T05:45:54.475Z,18.20
2023-10-17T05:48:41.141Z,19.47
2023-10-17T05:51:26.742Z,19.53
2023-10-17T05:54:40.563Z,19.67
2023-10-17T05:57:17.943Z,22.67
2023-10-17T06:00:03.260Z,22.57
2023-10-17T06:02:48.661Z,21.33
2023-10-17T06:05:34.068Z,21.33
2023-10-17T06:08:19.508Z,20.33
2023-10-17T06:11:37.165Z,20.77
2023-10-17T06:14:22.576Z,17.67
2023-10-17T06:16:55.295Z,17.60
2023-10-17T06:19:22.932Z,18.03
2023-10-17T06:22:01.946Z,19.03
2023-10-17T06:24:29.830Z,17.97
2023-10-17T06:26:59.443Z,18.17
2023-10-17T06:29:34.221Z,19.10
2023-10-17T06:32:18.619Z,19.00
2023-10-17T06:34:46.749Z,19.37
2023-10-17T06:37:20.772Z,19.37
2023-10-17T06:39:48.729Z,19.90
2023-10-17T06:42:16.309Z,20.03
2023-10-17T06:44:55.948Z,18.20
2023-10-17T06:47:31.910Z,17.23
2023-10-17T06:50:14.459Z,15.60
2023-10-17T06:52:53.715Z,17.10
2023-10-17T06:55:30.171Z,18.10
2023-10-17T06:57:59.210Z,18.20
2023-10-17T07:00:26.660Z,16.83
2023-10-17T07:02:58.115Z,17.03
2023-10-17T07:05:25.729Z,17.43
2023-10-17T07:07:55.831Z,18.47
2023-10-17T07:10:25.354Z,17.13
2023-10-17T07:13:29.837Z,16.53
2023-10-17T07:15:56.828Z,18.90
2023-10-17T07:18:42.411Z,16.50
2023-10-17T07:21:15.220Z,16.93
2023-10-17T07:23:46.776Z,14.87
2023-10-17T07:26:19.151Z,14.80
2023-10-17T07:28:46.227Z,14.30
2023-10-17T07:31:13.037Z,12.77
2023-10-17T07:33:43.582Z,14.13
2023-10-17T07:36:17.516Z,11.60
2023-10-17T07:38:47.025Z,10.33
2023-10-17T07:41:34.031Z,8.93
2023-10-17T07:44:10.219Z,7.83
2023-10-17T07:46:39.924Z,7.00
2023-10-17T07:49:06.856Z,6.73
2023-10-17T07:51:36.611Z,7.00
2023-10-17T07:54:09.034Z,6.20
2023-10-17T07:56:35.944Z,6.10
2023-10-17T07:59:10.030Z,5.80
2023-10-17T08:01:43.677Z,5.60
2023-10-17T08:04:17.146Z,5.83
2023-10-17T08:06:44.683Z,5.73
2023-10-17T08:09:39.655Z,6.20
2023-10-17T08:12:14.182Z,6.30
2023-10-17T08:14:43.909Z,6.73
2023-10-17T08:17:11.105Z,6.40
2023-10-17T08:19:58.012Z,6.47
2023-10-17T08:22:28.350Z,6.40
2023-10-17T08:24:55.249Z,6.57
2023-10-17T08:27:25.470Z,7.17
2023-10-17T08:30:10.997Z,8.53
2023-10-17T08:32:40.940Z,7.27
2023-10-17T08:35:27.441Z,9.00
2023-10-17T08:37:54.138Z,8.70
2023-10-17T08:40:39.156Z,9.83
2023-10-17T08:43:07.939Z,9.33
2023-10-17T08:45:38.821Z,9.13
2023-10-17T08:48:07.713Z,9.67
2023-10-17T08:50:41.186Z,9.43
2023-10-17T08:53:21.467Z,8.67
2023-10-17T08:55:53.024Z,8.50
2023-10-17T08:58:26.438Z,8.57
2023-10-17T09:01:09.021Z,7.37
2023-10-17T09:03:39.761Z,7.30
2023-10-17T09:06:29.920Z,6.67
2023-10-17T09:08:57.495Z,6.80
2023-10-17T09:11:43.202Z,6.47
2023-10-17T09:14:28.796Z,6.40
2023-10-17T09:17:19.523Z,6.37
2023-10-17T09:19:48.162Z,6.30
2023-10-17T09:22:16.549Z,6.67
2023-10-17T09:24:51.364Z,6.40
2023-10-17T09:27:20.050Z,5.83
2023-10-17T09:29:57.387Z,5.47
2023-10-17T09:32:39.128Z,5.43
2023-10-17T09:35:15.672Z,5.60
2023-10-17T09:37:47.108Z,5.93
2023-10-17T09:40:19.840Z,6.03
2023-10-17T09:42:47.416Z,6.00
2023-10-17T09:45:32.579Z,6.33
2023-10-17T09:48:07.086Z,6.07
2023-10-17T09:50:36.270Z,5.43
2023-10-17T09:53:18.990Z,5.03
2023-10-17T09:55:51.773Z,4.90
2023-10-17T09:58:29.538Z,5.27
2023-10-17T10:01:01.780Z,5.43
2023-10-17T10:03:30.123Z,4.87
2023-10-17T10:06:25.081Z,5.30
2023-10-17T10:09:07.956Z,4.63
2023-10-17T10:11:50.315Z,4.40
2023-10-17T10:14:36.771Z,4.20
2023-10-17T10:17:07.310Z,3.40
2023-10-17T10:19:43.471Z,3.57
2023-10-17T10:22:15.614Z,3.10
2023-10-17T10:24:44.152Z,2.97
2023-10-17T10:27:26.626Z,2.90
2023-10-17T10:29:55.964Z,2.80
2023-10-17T10:32:34.553Z,3.00
2023-10-17T10:35:06.605Z,2.50
2023-10-17T10:37:55.092Z,2.13
2023-10-17T10:40:27.648Z,3.60
2023-10-17T10:42:57.544Z,2.30
2023-10-17T10:45:49.475Z,2.00
2023-10-17T10:48:23.891Z,2.70
2023-10-17T10:50:57.059Z,3.60
2023-10-17T10:53:34.666Z,2.60
2023-10-17T10:56:11.924Z,2.33
2023-10-17T10:58:54.693Z,2.40
2023-10-17T11:01:22.380Z,2.20
2023-10-17T11:03:54.871Z,2.10
2023-10-17T11:06:26.822Z,2.20
2023-10-17T11:08:56.673Z,1.80
2023-10-17T11:11:23.989Z,1.70
2023-10-17T11:13:52.515Z,1.80
2023-10-17T11:16:22.277Z,4.00
2023-10-17T11:18:49.713Z,1.97
2023-10-17T11:21:24.700Z,1.80
2023-10-17T11:23:58.716Z,1.47
2023-10-17T11:26:29.397Z,1.80
2023-10-17T11:28:57.751Z,1.57
2023-10-17T11:31:30.841Z,1.57
2023-10-17T11:34:06.113Z,1.80
2023-10-17T11:36:50.009Z,1.80
2023-10-17T11:39:17.114Z,2.10
2023-10-17T11:41:57.417Z,2.10
2023-10-17T11:44:26.164Z,2.10
2023-10-17T11:47:02.577Z,2.07
2023-10-17T11:49:34.796Z,2.10
2023-10-17T11:52:13.886Z,2.20
2023-10-17T11:55:05.299Z,2.00
2023-10-17T11:57:35.032Z,2.00
2023-10-17T12:00:21.491Z,2.30
2023-10-17T12:02:49.512Z,2.10
2023-10-17T12:05:21.304Z,2.50
2023-10-17T12:07:56.782Z,2.30
2023-10-17T12:10:25.923Z,2.10
2023-10-17T12:12:54.197Z,2.13
2023-10-17T12:15:23.850Z,2.27
2023-10-17T12:17:51.537Z,2.53
2023-10-17T12:20:20.827Z,2.10
2023-10-17T12:22:48.092Z,2.40
2023-10-17T12:25:18.032Z,2.50
2023-10-17T12:27:51.496Z,2.40
2023-10-17T12:30:24.251Z,2.60
2023-10-17T12:32:51.339Z,2.77
2023-10-17T12:35:22.874Z,2.40
2023-10-17T12:37:53.915Z,2.70
2023-10-17T12:40:20.643Z,2.37
2023-10-17T12:42:48.040Z,2.63
2023-10-17T12:45:19.067Z,2.77
2023-10-17T12:47:52.218Z,2.50
2023-10-17T12:50:21.864Z,3.10
2023-10-17T12:52:48.844Z,2.50
2023-10-17T12:55:15.744Z,2.80
2023-10-17T12:57:44.578Z,3.20
2023-10-17T13:00:12.942Z,2.47
2023-10-17T13:02:40.766Z,2.47
2023-10-17T13:05:12.196Z,2.60
2023-10-17T13:07:40.207Z,2.53
2023-10-17T13:10:08.695Z,2.53
2023-10-17T13:12:36.066Z,2.47
2023-10-17T13:15:02.968Z,2.30
2023-10-17T13:17:30.179Z,2.10
2023-10-17T13:19:59.052Z,2.90
2023-10-17T13:22:26.500Z,2.30
2023-10-17T13:24:53.740Z,2.53
2023-10-17T13:27:23.149Z,2.50
2023-10-17T13:29:54.212Z,2.40
2023-10-17T13:32:20.900Z,2.20
2023-10-17T13:34:48.092Z,2.50
2023-10-17T13:37:14.835Z,2.67
2023-10-17T13:39:45.173Z,2.40
2023-10-17T13:42:12.099Z,2.50
2023-10-17T13:44:38.925Z,2.30
2023-10-17T13:47:09.037Z,2.60
2023-10-17T13:49:35.946Z,2.37
2023-10-17T13:52:04.970Z,2.30
2023-10-17T13:54:38.882Z,2.40
2023-10-17T13:57:08.436Z,2.20
2023-10-17T13:59:41.190Z,2.40
2023-10-17T14:02:08.206Z,2.70
2023-10-17T14:04:38.409Z,2.90
2023-10-17T14:07:05.481Z,2.57
2023-10-17T14:09:32.533Z,2.80
2023-10-17T14:12:00.702Z,2.77
2023-10-17T14:14:29.414Z,2.83
2023-10-17T14:16:58.060Z,2.50
2023-10-17T14:19:36.731Z,2.90
2023-10-17T14:22:10.321Z,2.60
2023-10-17T14:24:55.539Z,2.63
2023-10-17T14:27:31.153Z,2.57
2023-10-17T14:30:01.678Z,2.83
2023-10-17T14:32:29.879Z,2.97
2023-10-17T14:35:00.688Z,3.03
2023-10-17T14:37:29.211Z,3.10
2023-10-17T14:39:56.370Z,2.47
2023-10-17T14:42:23.470Z,2.70
2023-10-17T14:44:53.684Z,3.30
2023-10-17T14:47:23.795Z,3.07
2023-10-17T14:49:50.663Z,2.97
2023-10-17T14:52:22.061Z,3.10
2023-10-17T14:54:50.052Z,2.53
2023-10-17T14:57:18.981Z,3.40
2023-10-17T14:59:46.419Z,2.77
2023-10-17T15:02:16.127Z,3.10
2023-10-17T15:04:43.532Z,2.90
2023-10-17T15:07:10.729Z,2.80
2023-10-17T15:09:37.778Z,2.60
2023-10-17T15:12:05.376Z,2.73
2023-10-17T15:14:34.922Z,2.90
2023-10-17T15:17:01.839Z,2.90
2023-10-17T15:19:30.462Z,2.40
2023-10-17T15:21:58.301Z,3.63
2023-10-17T15:24:30.076Z,3.10
2023-10-17T15:26:59.973Z,3.10
2023-10-17T15:29:27.223Z,2.90
2023-10-17T15:31:56.343Z,2.50
2023-10-17T15:34:24.979Z,2.90
2023-10-17T15:36:53.184Z,2.90
2023-10-17T15:39:27.150Z,2.83
2023-10-17T15:41:54.702Z,2.90
2023-10-17T15:44:21.795Z,2.87
2023-10-17T15:46:50.130Z,2.50
2023-10-17T15:49:17.912Z,2.80
2023-10-17T15:51:44.868Z,2.50
2023-10-17T15:54:11.839Z,3.10
2023-10-17T15:56:38.763Z,2.70
2023-10-17T15:59:09.910Z,2.70
2023-10-17T16:01:42.474Z,2.60
2023-10-17T16:04:10.877Z,3.10
2023-10-17T16:06:39.921Z,3.10
2023-10-17T16:09:08.722Z,3.33
2023-10-17T16:11:35.523Z,3.63
2023-10-17T16:14:09.146Z,3.10
2023-10-17T16:16:38.016Z,2.60
2023-10-17T16:19:08.140Z,2.83
2023-10-17T16:21:39.087Z,2.97
2023-10-17T16:24:08.277Z,2.80
2023-10-17T16:26:36.845Z,3.20
2023-10-17T16:29:03.686Z,2.90
2023-10-17T16:31:30.564Z,3.13
2023-10-17T16:33:57.455Z,3.53
2023-10-17T16:36:24.229Z,2.73
2023-10-17T16:38:50.957Z,3.33
2023-10-17T16:41:17.764Z,3.73
2023-10-17T16:43:44.625Z,3.57
2023-10-17T16:46:13.242Z,2.50
2023-10-17T16:48:40.207Z,2.40
2023-10-17T16:51:07.044Z,2.90
2023-10-17T16:53:37.285Z,2.83
2023-10-17T16:56:05.210Z,2.80
2023-10-17T16:58:35.744Z,2.67
2023-10-17T17:01:07.592Z,2.70
2023-10-17T17:03:34.591Z,2.70
2023-10-17T17:06:07.105Z,3.00
2023-10-17T17:08:35.705Z,2.93
2023-10-17T17:11:06.420Z,3.10
2023-10-17T17:13:34.980Z,2.87
2023-10-17T17:16:02.917Z,2.80
2023-10-17T17:18:46.551Z,2.70
2023-10-17T17:21:24.222Z,2.70
2023-10-17T17:23:51.165Z,2.50
2023-10-17T17:26:18.481Z,2.77
2023-10-17T17:28:45.631Z,2.87
2023-10-17T17:31:12.640Z,3.20
2023-10-17T17:33:39.530Z,2.80
2023-10-17T17:36:07.968Z,2.77
2023-10-17T17:38:36.605Z,2.60
2023-10-17T17:41:06.986Z,3.00
2023-10-17T17:43:33.995Z,3.50
2023-10-17T17:46:01.109Z,3.13
2023-10-17T17:48:28.106Z,3.50
2023-10-17T17:50:56.773Z,3.17
2023-10-17T17:53:26.559Z,3.07
2023-10-17T17:55:53.473Z,3.37
2023-10-17T17:58:20.328Z,3.80
2023-10-17T18:00:54.610Z,3.50
2023-10-17T18:03:21.840Z,3.30
2023-10-17T18:05:49.123Z,3.53
2023-10-17T18:08:18.109Z,3.13
2023-10-17T18:10:46.490Z,3.00
2023-10-17T18:13:13.927Z,3.40
2023-10-17T18:15:41.533Z,3.80
2023-10-17T18:18:08.673Z,3.40
2023-10-17T18:20:35.952Z,3.40
2023-10-17T18:23:02.859Z,3.40
2023-10-17T18:25:32.148Z,3.50
2023-10-17T18:27:59.257Z,3.67
2023-10-17T18:30:26.242Z,4.80
2023-10-17T18:32:53.217Z,4.47
2023-10-17T18:35:20.014Z,4.33
2023-10-17T18:37:49.935Z,4.30
2023-10-17T18:40:17.212Z,4.13
2023-10-17T18:42:44.225Z,4.83
2023-10-17T18:45:16.121Z,4.40
2023-10-17T18:47:43.806Z,5.00
2023-10-17T18:50:12.365Z,4.90
2023-10-17T18:52:39.294Z,4.13
2023-10-17T18:55:12.544Z,4.50
2023-10-17T18:57:43.500Z,4.77
2023-10-17T19:00:19.770Z,4.20
2023-10-17T19:02:50.652Z,4.60
2023-10-17T19:05:17.680Z,4.80
2023-10-17T19:07:44.761Z,4.33
2023-10-17T19:10:15.908Z,4.20
2023-10-17T19:12:52.251Z,4.00
2023-10-17T19:15:21.609Z,3.83
2023-10-17T19:17:50.790Z,3.90
2023-10-17T19:20:17.813Z,4.03
2023-10-17T19:22:44.634Z,4.27
2023-10-17T19:25:12.334Z,4.33
2023-10-17T19:27:39.727Z,3.80
2023-10-17T19:30:08.781Z,3.93
2023-10-17T19:32:35.663Z,4.40
2023-10-17T19:35:03.737Z,3.83
2023-10-17T19:37:30.906Z,3.60
2023-10-17T19:39:57.670Z,3.43
2023-10-17T19:42:24.472Z,3.73
2023-10-17T19:44:51.199Z,3.93
2023-10-17T19:47:17.963Z,4.10
2023-10-17T19:49:45.964Z,3.70
2023-10-17T19:52:12.777Z,3.40
2023-10-17T19:54:39.787Z,3.30
2023-10-17T19:57:06.644Z,3.43
2023-10-17T19:59:33.484Z,3.60
2023-10-17T20:02:01.457Z,3.33
2023-10-17T20:04:31.330Z,3.30
2023-10-17T20:06:59.847Z,3.67
2023-10-17T20:09:27.926Z,3.40
2023-10-17T20:11:55.444Z,4.00
2023-10-17T20:14:22.542Z,3.50
2023-10-17T20:16:49.565Z,3.63
2023-10-17T20:19:16.459Z,3.70
2023-10-17T20:21:43.240Z,4.00
2023-10-17T20:24:12.224Z,3.97
2023-10-17T20:26:40.788Z,4.00
2023-10-17T20:29:10.798Z,3.53
2023-10-17T20:31:38.761Z,3.50
2023-10-17T20:34:05.831Z,3.63
2023-10-17T20:36:32.809Z,3.67
2023-10-17T20:38:59.647Z,3.37
2023-10-17T20:41:29.070Z,3.80
2023-10-17T20:43:56.208Z,3.50
2023-10-17T20:46:24.510Z,3.50
2023-10-17T20:48:54.343Z,4.00
2023-10-17T20:51:21.138Z,4.10
2023-10-17T20:53:48.254Z,3.90
2023-10-17T20:56:26.134Z,4.03
2023-10-17T20:59:01.660Z,3.70
2023-10-17T21:01:28.462Z,3.80
2023-10-17T21:03:56.486Z,4.17
2023-10-17T21:06:23.668Z,3.90
2023-10-17T21:08:50.780Z,3.70
2023-10-17T21:11:19.100Z,3.67
2023-10-17T21:13:46.895Z,4.17
2023-10-17T21:16:14.091Z,3.93
2023-10-17T21:18:40.972Z,3.97
2023-10-17T21:21:10.691Z,3.97
2023-10-17T21:23:37.560Z,4.00
2023-10-17T21:26:05.200Z,3.60
2023-10-17T21:28:32.464Z,4.07
2023-10-17T21:31:03.779Z,3.70
2023-10-17T21:33:33.321Z,3.70
2023-10-17T21:36:00.766Z,3.80
2023-10-17T21:38:27.799Z,4.13
2023-10-17T21:41:00.653Z,3.83
2023-10-17T21:43:27.997Z,4.03
2023-10-17T21:45:54.828Z,3.60
2023-10-17T21:48:22.271Z,3.77
2023-10-17T21:51:03.610Z,4.03
2023-10-17T21:53:38.471Z,4.60
2023-10-17T21:56:07.207Z,4.53
2023-10-17T21:58:34.547Z,5.40
2023-10-17T22:01:04.302Z,6.00
2023-10-17T22:03:33.153Z,7.03
2023-10-17T22:06:03.078Z,7.73
2023-10-17T22:08:29.851Z,8.40
2023-10-17T22:10:56.722Z,9.53
2023-10-17T22:13:23.540Z,9.50
2023-10-17T22:15:50.857Z,10.60
2023-10-17T22:18:17.742Z,11.20
2023-10-17T22:20:44.579Z,11.10
2023-10-17T22:23:12.871Z,11.43
2023-10-17T22:25:39.696Z,11.63
2023-10-17T22:28:06.551Z,11.50
2023-10-17T22:30:34.208Z,10.83
2023-10-17T22:33:00.994Z,9.97
2023-10-17T22:35:28.182Z,11.13
2023-10-17T22:37:55.532Z,9.33
2023-10-17T22:40:22.424Z,9.83
2023-10-17T22:42:52.615Z,8.90
2023-10-17T22:45:19.655Z,9.00
2023-10-17T22:47:47.187Z,8.90
2023-10-17T22:50:14.330Z,8.43
2023-10-17T22:52:41.330Z,8.20
2023-10-17T22:55:11.179Z,7.30
2023-10-17T22:57:38.402Z,6.93
2023-10-17T23:00:09.418Z,6.90
2023-10-17T23:02:36.251Z,7.20
2023-10-17T23:05:03.268Z,7.17
2023-10-17T23:07:30.156Z,6.37
2023-10-17T23:09:56.952Z,6.40
2023-10-17T23:12:23.746Z,6.77
2023-10-17T23:14:50.604Z,6.70
2023-10-17T23:17:17.636Z,6.40
2023-10-17T23:19:44.421Z,6.00
2023-10-17T23:22:11.251Z,6.00
2023-10-17T23:24:38.133Z,6.30
2023-10-17T23:27:06.884Z,6.20
2023-10-17T23:29:33.625Z,5.70
2023-10-17T23:32:00.391Z,6.10
2023-10-17T23:34:28.257Z,5.77
2023-10-17T23:36:55.011Z,5.67
2023-10-17T23:39:25.190Z,6.43
2023-10-17T23:41:52.345Z,6.10
2023-10-17T23:44:19.248Z,5.90
2023-10-17T23:46:46.115Z,6.43
2023-10-17T23:49:13.057Z,6.80
2023-10-17T23:51:39.993Z,7.13
2023-10-17T23:54:07.395Z,6.73
2023-10-17T23:56:34.930Z,6.90
2023-10-17T23:59:02.551Z,8.30
